createdAt,value
2022-08-14T00:01:58.997Z,38.39
2022-08-14T00:04:35.668Z,38.70
2022-08-14T00:07:14.120Z,38.55
2022-08-14T00:10:02.091Z,38.66
2022-08-14T00:12:42.133Z,39.09
2022-08-14T00:15:15.359Z,39.09
2022-08-14T00:17:47.393Z,39.13
2022-08-14T00:20:30.138Z,39.16
2022-08-14T00:23:12.383Z,39.13
2022-08-14T00:25:59.150Z,39.28
2022-08-14T00:28:41.223Z,39.41
2022-08-14T00:31:15.118Z,39.38
2022-08-14T00:33:51.441Z,39.30
2022-08-14T00:36:37.432Z,39.40
2022-08-14T00:39:18.271Z,39.34
2022-08-14T00:41:49.631Z,39.16
2022-08-14T00:44:27.627Z,39.24
2022-08-14T00:47:10.950Z,39.11
2022-08-14T00:49:43.115Z,39.14
2022-08-14T00:52:17.719Z,39.31
2022-08-14T00:54:57.784Z,38.99
2022-08-14T00:57:32.110Z,39.17
2022-08-14T01:00:04.084Z,38.99
2022-08-14T01:02:35.081Z,39.09
2022-08-14T01:05:08.750Z,39.32
2022-08-14T01:07:54.149Z,39.32
2022-08-14T01:10:49.122Z,39.10
2022-08-14T01:13:23.605Z,39.14
2022-08-14T01:15:57.710Z,39.37
2022-08-14T01:19:02.290Z,39.23
2022-08-14T01:21:34.813Z,39.27
2022-08-14T01:24:10.991Z,39.25
2022-08-14T01:26:49.884Z,39.41
2022-08-14T01:29:43.090Z,39.34
2022-08-14T01:32:23.115Z,39.24
2022-08-14T01:35:18.447Z,39.41
2022-08-14T01:37:56.246Z,39.60
2022-08-14T01:40:36.634Z,39.65
2022-08-14T01:43:18.608Z,39.80
2022-08-14T01:45:57.739Z,39.67
2022-08-14T01:48:37.974Z,39.83
2022-08-14T01:51:19.982Z,39.90
2022-08-14T01:53:55.300Z,39.88
2022-08-14T01:56:37.297Z,39.86
2022-08-14T01:59:20.836Z,40.03
2022-08-14T02:01:58.380Z,40.06
2022-08-14T02:04:56.295Z,40.25
2022-08-14T02:07:44.629Z,40.13
2022-08-14T02:10:45.931Z,40.16
2022-08-14T02:13:20.513Z,40.01
2022-08-14T02:15:55.547Z,40.27
2022-08-14T02:18:28.441Z,40.41
2022-08-14T02:21:09.721Z,40.39
2022-08-14T02:23:43.108Z,40.50
2022-08-14T02:26:28.983Z,40.67
2022-08-14T02:29:06.715Z,40.69
2022-08-14T02:31:43.291Z,40.86
2022-08-14T02:34:21.851Z,40.71
2022-08-14T02:37:06.695Z,40.83
2022-08-14T02:39:43.304Z,40.96
2022-08-14T02:42:14.589Z,41.01
2022-08-14T02:44:50.047Z,41.07
2022-08-14T02:47:23.212Z,41.08
2022-08-14T02:49:59.648Z,41.11
2022-08-14T02:52:55.935Z,41.33
2022-08-14T02:55:24.135Z,41.36
2022-08-14T02:58:02.987Z,41.42
2022-08-14T03:00:39.911Z,41.49
2022-08-14T03:03:16.802Z,41.59
2022-08-14T03:05:51.633Z,41.64
2022-08-14T03:08:32.014Z,41.63
2022-08-14T03:11:07.695Z,41.67
2022-08-14T03:13:42.357Z,41.78
2022-08-14T03:16:26.509Z,41.82
2022-08-14T03:19:00.665Z,41.85
2022-08-14T03:21:31.895Z,41.99
2022-08-14T03:24:16.551Z,42.08
2022-08-14T03:26:57.988Z,42.10
2022-08-14T03:29:29.615Z,42.16
2022-08-14T03:32:00.675Z,42.25
2022-08-14T03:34:48.539Z,42.29
2022-08-14T03:37:38.941Z,42.33
2022-08-14T03:40:18.702Z,42.47
2022-08-14T03:42:51.589Z,42.53
2022-08-14T03:45:34.835Z,42.62
2022-08-14T03:48:29.474Z,42.59
2022-08-14T03:51:02.689Z,42.82
2022-08-14T03:53:35.054Z,42.88
2022-08-14T03:56:09.435Z,42.83
2022-08-14T03:58:46.900Z,42.88
2022-08-14T04:01:21.538Z,43.09
2022-08-14T04:03:55.558Z,43.09
2022-08-14T04:06:32.160Z,43.22
2022-08-14T04:09:05.214Z,43.19
2022-08-14T04:11:38.545Z,43.21
2022-08-14T04:14:16.418Z,43.32
2022-08-14T04:16:56.351Z,43.53
2022-08-14T04:19:33.149Z,43.59
2022-08-14T04:22:08.295Z,43.60
2022-08-14T04:24:45.585Z,43.53
2022-08-14T04:27:20.724Z,43.73
2022-08-14T04:29:52.088Z,43.78
2022-08-14T04:32:57.569Z,43.82
2022-08-14T04:35:56.432Z,44.00
2022-08-14T04:38:43.284Z,43.97
2022-08-14T04:41:35.955Z,44.06
2022-08-14T04:44:13.562Z,44.28
2022-08-14T04:47:23.817Z,44.35
2022-08-14T04:49:59.550Z,44.45
2022-08-14T04:52:34.310Z,44.16
2022-08-14T04:55:09.048Z,44.30
2022-08-14T04:57:41.504Z,44.52
2022-08-14T05:00:18.278Z,44.57
2022-08-14T05:02:49.108Z,44.76
2022-08-14T05:05:25.357Z,44.59
2022-08-14T05:08:01.554Z,44.74
2022-08-14T05:10:44.171Z,44.67
2022-08-14T05:13:15.673Z,44.78
2022-08-14T05:15:55.505Z,44.78
2022-08-14T05:19:16.607Z,44.82
2022-08-14T05:21:57.477Z,45.12
2022-08-14T05:24:17.628Z,45.08
2022-08-14T05:26:53.278Z,45.20
2022-08-14T05:29:24.373Z,45.46
2022-08-14T05:31:58.042Z,45.43
2022-08-14T05:34:31.553Z,45.44
2022-08-14T05:37:03.538Z,45.46
2022-08-14T05:39:43.907Z,45.51
2022-08-14T05:42:21.636Z,45.42
2022-08-14T05:44:57.846Z,45.45
2022-08-14T05:47:38.829Z,45.39
2022-08-14T05:50:18.698Z,45.50
2022-08-14T05:52:54.497Z,45.41
2022-08-14T05:55:28.376Z,45.50
2022-08-14T05:58:00.693Z,45.54
2022-08-14T06:00:37.191Z,45.57
2022-08-14T06:03:11.960Z,45.70
2022-08-14T06:05:45.004Z,45.62
2022-08-14T06:08:35.431Z,45.73
2022-08-14T06:11:08.939Z,45.80
2022-08-14T06:13:51.840Z,45.93
2022-08-14T06:16:23.033Z,45.95
2022-08-14T06:19:00.291Z,46.03
2022-08-14T06:21:31.770Z,46.18
2022-08-14T06:24:03.837Z,46.29
2022-08-14T06:26:42.201Z,46.13
2022-08-14T06:29:25.246Z,46.18
2022-08-14T06:32:37.671Z,46.21
2022-08-14T06:35:02.971Z,46.23
2022-08-14T06:37:52.854Z,46.26
2022-08-14T06:40:27.553Z,46.17
2022-08-14T06:43:06.987Z,46.17
2022-08-14T06:45:40.645Z,46.23
2022-08-14T06:48:17.514Z,46.52
2022-08-14T06:50:48.571Z,46.48
2022-08-14T06:53:28.764Z,46.52
2022-08-14T06:56:05.891Z,46.63
2022-08-14T06:58:36.588Z,46.70
2022-08-14T07:01:27.924Z,46.52
2022-08-14T07:04:23.836Z,46.66
2022-08-14T07:07:02.713Z,46.55
2022-08-14T07:09:40.583Z,46.60
2022-08-14T07:12:52.176Z,46.57
2022-08-14T07:15:08.543Z,46.66
2022-08-14T07:17:51.864Z,46.76
2022-08-14T07:20:31.341Z,46.62
2022-08-14T07:23:08.448Z,46.62
2022-08-14T07:25:44.420Z,46.56
2022-08-14T07:28:20.602Z,46.55
2022-08-14T07:31:04.599Z,46.39
2022-08-14T07:33:41.948Z,46.45
2022-08-14T07:36:17.568Z,46.50
2022-08-14T07:38:58.822Z,46.53
2022-08-14T07:41:36.477Z,46.27
2022-08-14T07:44:32.672Z,45.91
2022-08-14T07:47:00.879Z,45.63
2022-08-14T07:49:34.545Z,45.22
2022-08-14T07:52:09.297Z,45.02
2022-08-14T07:54:42.915Z,44.92
2022-08-14T07:57:25.113Z,44.86
2022-08-14T07:59:57.651Z,44.68
2022-08-14T08:02:32.749Z,44.58
2022-08-14T08:05:04.229Z,44.82
2022-08-14T08:07:39.130Z,44.81
2022-08-14T08:10:31.351Z,44.74
2022-08-14T08:13:23.904Z,44.87
2022-08-14T08:15:58.228Z,44.70
2022-08-14T08:18:29.890Z,44.84
2022-08-14T08:21:02.000Z,44.64
2022-08-14T08:23:40.673Z,44.82
2022-08-14T08:26:27.002Z,45.05
2022-08-14T08:29:01.187Z,45.17
2022-08-14T08:31:52.989Z,45.35
2022-08-14T08:34:27.080Z,45.46
2022-08-14T08:37:02.720Z,45.63
2022-08-14T08:40:02.512Z,45.81
2022-08-14T08:42:38.829Z,45.78
2022-08-14T08:45:17.535Z,45.88
2022-08-14T08:47:57.445Z,45.85
2022-08-14T08:53:03.778Z,46.48
2022-08-14T08:55:36.821Z,46.63
2022-08-14T08:58:16.181Z,46.57
2022-08-14T09:00:54.177Z,46.82
2022-08-14T09:03:27.601Z,46.78
2022-08-14T09:06:04.405Z,46.70
2022-08-14T09:08:58.287Z,46.52
2022-08-14T09:11:30.620Z,46.67
2022-08-14T09:14:04.783Z,46.69
2022-08-14T09:16:38.687Z,46.60
2022-08-14T09:19:16.681Z,46.57
2022-08-14T09:21:48.952Z,46.44
2022-08-14T09:24:28.615Z,45.90
2022-08-14T09:27:09.861Z,45.85
2022-08-14T09:29:54.568Z,45.72
2022-08-14T09:32:58.783Z,45.77
2022-08-14T09:35:22.630Z,45.85
2022-08-14T09:37:57.282Z,45.83
2022-08-14T09:40:32.597Z,45.93
2022-08-14T09:43:14.254Z,45.74
2022-08-14T09:45:58.549Z,45.49
2022-08-14T09:48:37.735Z,45.65
2022-08-14T09:51:09.927Z,45.67
2022-08-14T09:54:12.704Z,45.82
2022-08-14T09:56:56.678Z,45.93
2022-08-14T09:59:33.622Z,46.01
2022-08-14T10:02:20.271Z,46.04
2022-08-14T10:05:03.498Z,46.10
2022-08-14T10:07:37.405Z,46.16
2022-08-14T10:10:23.516Z,46.19
2022-08-14T10:12:58.390Z,46.26
2022-08-14T10:15:32.011Z,46.29
2022-08-14T10:18:13.302Z,46.31
2022-08-14T10:21:00.327Z,46.27
2022-08-14T10:23:43.457Z,46.40
2022-08-14T10:26:22.951Z,46.27
2022-08-14T10:29:19.881Z,46.34
2022-08-14T10:32:00.741Z,46.32
2022-08-14T10:34:38.642Z,46.40
2022-08-14T10:37:18.727Z,46.25
2022-08-14T10:40:10.499Z,46.15
2022-08-14T10:42:43.871Z,46.19
2022-08-14T10:45:22.586Z,46.23
2022-08-14T10:48:07.570Z,46.22
2022-08-14T10:50:51.768Z,46.33
2022-08-14T10:53:40.419Z,46.27
2022-08-14T10:56:21.698Z,46.37
2022-08-14T10:59:09.091Z,46.43
2022-08-14T11:01:42.040Z,46.64
2022-08-14T11:04:25.840Z,46.44
2022-08-14T11:06:59.748Z,46.57
2022-08-14T11:09:31.736Z,46.43
2022-08-14T11:12:35.002Z,46.31
2022-08-14T11:15:02.253Z,45.91
2022-08-14T11:17:37.456Z,45.73
2022-08-14T11:20:16.864Z,45.55
2022-08-14T11:22:57.848Z,45.46
2022-08-14T11:25:41.403Z,44.98
2022-08-14T11:28:47.187Z,44.58
2022-08-14T11:31:20.362Z,44.31
2022-08-14T11:33:59.268Z,43.88
2022-08-14T11:36:35.340Z,43.62
2022-08-14T11:39:34.253Z,43.05
2022-08-14T11:42:58.806Z,42.52
2022-08-14T11:45:11.476Z,42.70
2022-08-14T11:48:12.942Z,42.69
2022-08-14T11:50:49.204Z,42.06
2022-08-14T11:53:23.605Z,41.88
2022-08-14T11:56:01.636Z,41.39
2022-08-14T11:58:37.996Z,41.01
2022-08-14T12:01:11.093Z,40.52
2022-08-14T12:03:52.281Z,40.30
2022-08-14T12:06:39.615Z,39.98
2022-08-14T12:09:15.228Z,39.18
2022-08-14T12:11:51.519Z,39.01
2022-08-14T12:14:30.479Z,38.80
2022-08-14T12:17:12.203Z,38.49
2022-08-14T12:19:51.294Z,38.09
2022-08-14T12:22:44.525Z,37.97
2022-08-14T12:25:15.817Z,37.86
2022-08-14T12:27:53.199Z,37.59
2022-08-14T12:30:34.336Z,37.40
2022-08-14T12:33:23.951Z,37.38
2022-08-14T12:36:00.703Z,37.43
2022-08-14T12:38:38.450Z,37.29
2022-08-14T12:41:16.484Z,37.29
2022-08-14T12:44:00.029Z,37.66
2022-08-14T12:46:35.070Z,37.28
2022-08-14T12:49:11.707Z,37.44
2022-08-14T12:51:57.016Z,37.33
2022-08-14T12:54:29.353Z,37.08
2022-08-14T12:57:10.626Z,37.42
2022-08-14T12:59:50.751Z,37.46
2022-08-14T13:02:26.303Z,37.30
2022-08-14T13:04:59.329Z,37.40
2022-08-14T13:07:32.441Z,37.25
2022-08-14T13:10:45.895Z,37.27
2022-08-14T13:13:13.502Z,37.43
2022-08-14T13:15:55.953Z,37.91
2022-08-14T13:18:47.413Z,38.22
2022-08-14T13:21:31.511Z,38.54
2022-08-14T13:24:27.680Z,38.71
2022-08-14T13:27:04.584Z,38.75
2022-08-14T13:29:46.583Z,39.01
2022-08-14T13:32:22.827Z,39.08
2022-08-14T13:34:58.478Z,39.26
2022-08-14T13:37:35.248Z,39.22
2022-08-14T13:40:11.734Z,39.30
2022-08-14T13:42:45.382Z,39.39
2022-08-14T13:45:22.253Z,39.40
2022-08-14T13:47:55.453Z,39.76
2022-08-14T13:50:26.451Z,39.89
2022-08-14T13:52:57.297Z,40.02
2022-08-14T13:55:29.012Z,40.24
2022-08-14T13:58:06.482Z,40.43
2022-08-14T14:00:52.825Z,40.35
2022-08-14T14:03:30.153Z,40.50
2022-08-14T14:06:02.759Z,40.62
2022-08-14T14:08:46.452Z,40.89
2022-08-14T14:11:24.268Z,41.16
2022-08-14T14:13:58.542Z,41.31
2022-08-14T14:16:31.673Z,41.54
2022-08-14T14:19:10.448Z,41.75
2022-08-14T14:21:52.953Z,41.93
2022-08-14T14:24:34.478Z,42.07
2022-08-14T14:27:38.994Z,42.10
2022-08-14T14:30:03.341Z,42.29
2022-08-14T14:33:02.360Z,42.36
2022-08-14T14:35:39.692Z,42.52
2022-08-14T14:38:11.275Z,42.60
2022-08-14T14:40:52.125Z,42.80
2022-08-14T14:43:28.527Z,43.00
2022-08-14T14:45:59.378Z,42.86
2022-08-14T14:48:46.659Z,42.92
2022-08-14T14:51:25.508Z,42.98
2022-08-14T14:54:02.027Z,43.13
2022-08-14T14:56:48.257Z,43.13
2022-08-14T14:59:24.190Z,43.27
2022-08-14T15:02:00.333Z,43.33
2022-08-14T15:04:37.877Z,43.31
2022-08-14T15:07:10.580Z,43.46
2022-08-14T15:09:46.106Z,43.51
2022-08-14T15:12:34.361Z,43.80
2022-08-14T15:15:11.057Z,43.77
2022-08-14T15:17:43.451Z,43.76
2022-08-14T15:20:16.969Z,43.85
2022-08-14T15:22:52.839Z,43.98
2022-08-14T15:25:31.964Z,44.03
2022-08-14T15:28:03.122Z,44.03
2022-08-14T15:30:36.201Z,44.10
2022-08-14T15:33:11.128Z,44.22
2022-08-14T15:35:46.603Z,44.19
2022-08-14T15:38:23.719Z,44.19
2022-08-14T15:41:08.498Z,44.27
2022-08-14T15:43:43.688Z,44.29
2022-08-14T15:46:41.330Z,44.55
2022-08-14T15:49:11.160Z,44.49
2022-08-14T15:51:43.573Z,44.52
2022-08-14T15:54:14.813Z,44.42
2022-08-14T15:56:47.221Z,44.38
2022-08-14T15:59:19.632Z,44.63
2022-08-14T16:02:00.545Z,44.55
2022-08-14T16:04:34.648Z,44.55
2022-08-14T16:07:06.664Z,44.68
2022-08-14T16:09:39.871Z,44.71
2022-08-14T16:12:12.813Z,44.68
2022-08-14T16:14:48.753Z,44.90
2022-08-14T16:17:28.615Z,44.96
2022-08-14T16:20:00.730Z,44.88
2022-08-14T16:22:57.526Z,45.00
2022-08-14T16:25:35.457Z,45.06
2022-08-14T16:28:07.171Z,45.06
2022-08-14T16:30:57.936Z,45.01
2022-08-14T16:33:59.131Z,45.06
2022-08-14T16:36:31.395Z,45.10
2022-08-14T16:39:06.589Z,45.09
2022-08-14T16:41:37.645Z,45.13
2022-08-14T16:44:21.914Z,45.11
2022-08-14T16:47:07.997Z,45.13
2022-08-14T16:50:04.601Z,45.08
2022-08-14T16:52:43.869Z,45.19
2022-08-14T16:55:30.245Z,45.24
2022-08-14T16:58:01.475Z,45.29
2022-08-14T17:00:43.156Z,45.32
2022-08-14T17:03:21.396Z,45.42
2022-08-14T17:05:54.335Z,45.65
2022-08-14T17:08:41.425Z,45.66
2022-08-14T17:11:27.854Z,45.62
2022-08-14T17:14:01.581Z,45.60
2022-08-14T17:16:40.924Z,45.64
2022-08-14T17:19:14.097Z,45.72
2022-08-14T17:21:48.751Z,45.64
2022-08-14T17:24:55.922Z,45.71
2022-08-14T17:27:26.251Z,45.87
2022-08-14T17:29:58.061Z,45.76
2022-08-14T17:35:58.715Z,45.87
2022-08-14T17:38:40.249Z,45.93
2022-08-14T17:41:27.342Z,45.89
2022-08-14T17:44:21.856Z,45.91
2022-08-14T17:47:08.929Z,46.15
2022-08-14T17:49:52.169Z,46.14
2022-08-14T17:52:40.723Z,46.26
2022-08-14T17:56:01.224Z,46.19
2022-08-14T17:58:20.472Z,46.36
2022-08-14T18:00:56.728Z,46.50
2022-08-14T18:03:49.995Z,46.50
2022-08-14T18:06:39.059Z,46.61
2022-08-14T18:09:25.474Z,46.70
2022-08-14T18:12:04.051Z,46.70
2022-08-14T18:14:49.060Z,46.96
2022-08-14T18:17:24.571Z,46.81
2022-08-14T18:19:57.458Z,46.95
2022-08-14T18:22:39.361Z,47.00
2022-08-14T18:25:19.183Z,47.12
2022-08-14T18:27:59.514Z,47.00
2022-08-14T18:30:57.993Z,47.02
2022-08-14T18:33:25.518Z,47.37
2022-08-14T18:36:48.285Z,47.22
2022-08-14T18:39:15.488Z,47.27
2022-08-14T18:41:50.378Z,47.38
2022-08-14T18:44:42.466Z,47.30
2022-08-14T18:47:22.672Z,47.51
2022-08-14T18:50:27.720Z,47.35
2022-08-14T18:53:06.867Z,47.63
2022-08-14T18:55:55.087Z,47.60
2022-08-14T18:58:31.019Z,47.71
2022-08-14T19:01:09.091Z,47.97
2022-08-14T19:03:50.150Z,47.99
2022-08-14T19:06:21.016Z,48.30
2022-08-14T19:08:52.643Z,48.49
2022-08-14T19:11:42.268Z,48.90
2022-08-14T19:14:18.152Z,49.17
2022-08-14T19:16:56.599Z,49.44
2022-08-14T19:19:27.384Z,49.56
2022-08-14T19:22:02.041Z,49.91
2022-08-14T19:24:50.196Z,50.24
2022-08-14T19:27:23.689Z,50.81
2022-08-14T19:30:06.302Z,51.00
2022-08-14T19:32:42.235Z,51.09
2022-08-14T19:35:49.486Z,51.29
2022-08-14T19:38:35.112Z,51.50
2022-08-14T19:41:20.631Z,51.48
2022-08-14T19:43:55.324Z,51.84
2022-08-14T19:46:39.051Z,51.86
2022-08-14T19:50:24.378Z,52.18
2022-08-14T19:52:29.865Z,52.70
2022-08-14T19:55:01.492Z,52.69
2022-08-14T19:57:32.331Z,52.82
2022-08-14T20:00:28.332Z,52.58
2022-08-14T20:03:11.012Z,52.81
2022-08-14T20:05:46.256Z,52.53
2022-08-14T20:10:59.088Z,52.88
2022-08-14T20:12:00.229Z,52.97
2022-08-14T20:14:20.615Z,53.59
2022-08-14T20:17:03.188Z,53.80
2022-08-14T20:19:41.540Z,53.75
2022-08-14T20:22:35.737Z,53.66
2022-08-14T20:25:15.642Z,53.75
2022-08-14T20:27:59.320Z,53.67
2022-08-14T20:30:37.515Z,53.48
2022-08-14T20:33:17.184Z,53.50
2022-08-14T20:35:54.904Z,53.58
2022-08-14T20:38:32.616Z,53.80
2022-08-14T20:41:10.542Z,53.86
2022-08-14T20:44:06.407Z,54.13
2022-08-14T20:46:42.210Z,54.24
2022-08-14T20:49:18.626Z,54.30
2022-08-14T20:51:58.908Z,54.58
2022-08-14T20:54:34.377Z,54.64
2022-08-14T20:57:14.247Z,54.72
2022-08-14T20:59:48.777Z,54.79
2022-08-14T21:02:29.513Z,54.81
2022-08-14T21:05:17.343Z,54.97
2022-08-14T21:07:55.976Z,55.08
2022-08-14T21:10:44.323Z,54.96
2022-08-14T21:14:08.648Z,55.25
2022-08-14T21:16:34.239Z,55.24
2022-08-14T21:19:16.567Z,55.33
2022-08-14T21:21:54.687Z,55.44
2022-08-14T21:24:47.284Z,55.34
2022-08-14T21:27:21.683Z,55.68
2022-08-14T21:30:03.725Z,55.94
2022-08-14T21:32:50.183Z,56.13
2022-08-14T21:35:41.919Z,56.04
2022-08-14T21:38:18.693Z,55.93
2022-08-14T21:40:53.819Z,55.93
2022-08-14T21:43:26.549Z,55.99
2022-08-14T21:46:04.073Z,55.79
2022-08-14T21:48:35.792Z,55.70
2022-08-14T21:51:55.574Z,55.62
2022-08-14T21:54:06.453Z,55.85
2022-08-14T21:57:06.563Z,55.92
2022-08-14T21:59:45.604Z,56.02
2022-08-14T22:02:32.865Z,55.93
2022-08-14T22:05:18.339Z,56.18
2022-08-14T22:08:12.218Z,56.00
2022-08-14T22:11:10.383Z,56.07
2022-08-14T22:13:46.970Z,56.04
2022-08-14T22:17:01.507Z,56.11
2022-08-14T22:19:23.212Z,56.20
2022-08-14T22:22:20.980Z,55.97
2022-08-14T22:25:00.116Z,56.21
2022-08-14T22:27:36.456Z,56.07
2022-08-14T22:30:31.239Z,56.42
2022-08-14T22:33:04.891Z,56.40
2022-08-14T22:35:35.736Z,56.43
2022-08-14T22:38:37.530Z,55.88
2022-08-14T22:41:29.518Z,55.98
2022-08-14T22:44:04.614Z,56.14
2022-08-14T22:46:45.237Z,56.24
2022-08-14T22:50:32.454Z,56.44
2022-08-14T22:52:32.872Z,56.44
2022-08-14T22:55:06.652Z,56.56
2022-08-14T22:57:43.763Z,56.69
2022-08-14T23:00:17.656Z,56.67
2022-08-14T23:02:57.225Z,56.85
2022-08-14T23:05:39.688Z,56.99
2022-08-14T23:08:59.490Z,56.95
2022-08-14T23:11:14.756Z,56.91
2022-08-14T23:13:47.764Z,57.05
2022-08-14T23:16:21.166Z,57.27
2022-08-14T23:18:54.647Z,57.29
2022-08-14T23:21:34.889Z,57.29
2022-08-14T23:24:15.523Z,57.39
2022-08-14T23:26:53.642Z,57.41
2022-08-14T23:29:26.988Z,57.44
2022-08-14T23:32:15.752Z,57.15
2022-08-14T23:34:51.623Z,57.38
2022-08-14T23:37:33.512Z,57.33
2022-08-14T23:40:26.520Z,57.46
2022-08-14T23:43:02.863Z,57.33
2022-08-14T23:45:43.195Z,57.41
2022-08-14T23:48:19.621Z,57.40
2022-08-14T23:50:54.387Z,57.47
2022-08-14T23:53:48.624Z,57.38
2022-08-14T23:56:32.350Z,57.66
2022-08-14T23:59:05.598Z,57.64
